createdAt,value
2022-08-26T00:01:31.267Z,14.78
2022-08-26T00:03:58.909Z,14.65
2022-08-26T00:06:26.347Z,14.70
2022-08-26T00:08:53.396Z,14.66
2022-08-26T00:11:26.832Z,14.63
2022-08-26T00:13:55.316Z,14.51
2022-08-26T00:16:24.855Z,14.61
2022-08-26T00:18:53.020Z,14.52
2022-08-26T00:21:20.139Z,14.47
2022-08-26T00:23:46.950Z,14.47
2022-08-26T00:26:14.420Z,14.38
2022-08-26T00:28:41.155Z,14.32
2022-08-26T00:31:11.137Z,14.21
2022-08-26T00:33:41.610Z,14.16
2022-08-26T00:36:09.536Z,14.25
2022-08-26T00:38:46.747Z,14.11
2022-08-26T00:41:13.795Z,14.30
2022-08-26T00:43:47.580Z,14.07
2022-08-26T00:46:19.745Z,14.17
2022-08-26T00:48:50.122Z,14.22
2022-08-26T00:51:29.579Z,14.12
2022-08-26T00:54:06.820Z,14.05
2022-08-26T00:56:43.358Z,14.01
2022-08-26T00:59:13.164Z,14.12
2022-08-26T01:01:41.960Z,13.93
2022-08-26T01:04:10.851Z,13.90
2022-08-26T01:06:37.691Z,13.86
2022-08-26T01:09:04.814Z,14.04
2022-08-26T01:11:32.732Z,14.01
2022-08-26T01:14:02.820Z,13.99
2022-08-26T01:16:30.177Z,13.93
2022-08-26T01:19:02.175Z,13.87
2022-08-26T01:21:36.470Z,13.89
2022-08-26T01:24:08.755Z,13.81
2022-08-26T01:26:41.550Z,13.76
2022-08-26T01:29:18.946Z,13.74
2022-08-26T01:31:55.611Z,13.75
2022-08-26T01:34:32.044Z,13.61
2022-08-26T01:37:07.371Z,13.72
2022-08-26T01:39:36.166Z,13.68
2022-08-26T01:42:05.734Z,13.62
2022-08-26T01:44:46.457Z,13.62
2022-08-26T01:47:17.278Z,13.56
2022-08-26T01:49:48.074Z,13.57
2022-08-26T01:52:24.209Z,13.34
2022-08-26T01:54:57.530Z,13.34
2022-08-26T01:57:25.357Z,13.36
2022-08-26T01:59:56.122Z,13.42
2022-08-26T02:02:24.435Z,13.06
2022-08-26T02:04:57.324Z,13.35
2022-08-26T02:07:26.639Z,13.34
2022-08-26T02:09:54.579Z,13.20
2022-08-26T02:12:21.845Z,13.17
2022-08-26T02:14:53.857Z,13.04
2022-08-26T02:17:25.878Z,13.09
2022-08-26T02:19:53.206Z,13.03
2022-08-26T02:22:24.475Z,12.94
2022-08-26T02:25:06.048Z,13.14
2022-08-26T02:27:35.184Z,13.06
2022-08-26T02:30:24.626Z,13.07
2022-08-26T02:32:53.297Z,13.06
2022-08-26T02:35:22.475Z,12.86
2022-08-26T02:37:50.656Z,13.02
2022-08-26T02:40:21.734Z,13.02
2022-08-26T02:42:49.131Z,12.71
2022-08-26T02:45:16.780Z,12.78
2022-08-26T02:47:50.696Z,12.85
2022-08-26T02:50:17.498Z,12.95
2022-08-26T02:52:44.353Z,12.93
2022-08-26T02:55:11.183Z,12.86
2022-08-26T02:57:38.087Z,12.95
2022-08-26T03:00:08.733Z,12.89
2022-08-26T03:02:35.388Z,12.82
2022-08-26T03:05:02.508Z,12.70
2022-08-26T03:07:30.041Z,12.58
2022-08-26T03:09:57.301Z,12.63
2022-08-26T03:12:24.287Z,12.73
2022-08-26T03:14:52.821Z,12.46
2022-08-26T03:17:19.515Z,12.66
2022-08-26T03:19:46.154Z,12.44
2022-08-26T03:22:14.508Z,12.50
2022-08-26T03:24:41.446Z,12.44
2022-08-26T03:27:12.729Z,12.30
2022-08-26T03:29:59.639Z,12.47
2022-08-26T03:32:27.055Z,12.42
2022-08-26T03:34:54.604Z,12.46
2022-08-26T03:37:21.699Z,12.09
2022-08-26T03:39:48.763Z,12.28
2022-08-26T03:42:16.318Z,12.25
2022-08-26T03:44:43.373Z,12.38
2022-08-26T03:47:12.001Z,12.39
2022-08-26T03:49:38.912Z,12.26
2022-08-26T03:52:06.318Z,12.26
2022-08-26T03:54:33.619Z,12.40
2022-08-26T03:57:00.281Z,12.42
2022-08-26T03:59:27.446Z,12.40
2022-08-26T04:01:54.673Z,12.22
2022-08-26T04:04:22.873Z,12.34
2022-08-26T04:06:57.654Z,12.09
2022-08-26T04:09:24.739Z,12.37
2022-08-26T04:11:51.855Z,12.22
2022-08-26T04:14:21.934Z,12.18
2022-08-26T04:16:49.210Z,12.15
2022-08-26T04:19:17.338Z,12.10
2022-08-26T04:21:46.114Z,12.31
2022-08-26T04:24:15.729Z,12.29
2022-08-26T04:26:43.900Z,12.15
2022-08-26T04:29:20.038Z,12.28
2022-08-26T04:31:50.543Z,12.27
2022-08-26T04:34:23.418Z,11.77
2022-08-26T04:36:50.258Z,11.94
2022-08-26T04:39:19.711Z,11.98
2022-08-26T04:41:48.631Z,11.99
2022-08-26T04:44:17.302Z,12.20
2022-08-26T04:46:44.402Z,12.08
2022-08-26T04:49:11.644Z,12.01
2022-08-26T04:51:39.452Z,12.20
2022-08-26T04:54:07.237Z,12.32
2022-08-26T04:56:37.287Z,12.19
2022-08-26T04:59:24.592Z,12.05
2022-08-26T05:01:53.428Z,12.38
2022-08-26T05:04:21.087Z,12.39
2022-08-26T05:06:48.789Z,12.20
2022-08-26T05:09:15.630Z,12.20
2022-08-26T05:11:42.339Z,12.07
2022-08-26T05:14:09.752Z,12.38
2022-08-26T05:16:36.668Z,12.31
2022-08-26T05:19:04.749Z,12.34
2022-08-26T05:21:31.437Z,12.34
2022-08-26T05:23:58.633Z,12.56
2022-08-26T05:26:28.711Z,12.31
2022-08-26T05:28:56.586Z,12.48
2022-08-26T05:31:29.475Z,12.51
2022-08-26T05:33:57.748Z,12.46
2022-08-26T05:36:27.695Z,12.62
2022-08-26T05:38:56.163Z,12.66
2022-08-26T05:41:34.416Z,12.47
2022-08-26T05:44:08.683Z,12.71
2022-08-26T05:46:37.169Z,12.77
2022-08-26T05:49:05.839Z,12.77
2022-08-26T05:51:36.462Z,12.76
2022-08-26T05:54:04.307Z,12.87
2022-08-26T05:56:30.931Z,12.97
2022-08-26T05:59:01.439Z,12.72
2022-08-26T06:01:29.097Z,13.05
2022-08-26T06:04:14.736Z,12.83
2022-08-26T06:06:45.020Z,12.85
2022-08-26T06:09:14.855Z,12.82
2022-08-26T06:11:45.142Z,12.90
2022-08-26T06:14:19.759Z,12.87
2022-08-26T06:16:47.037Z,12.69
2022-08-26T06:19:18.543Z,12.96
2022-08-26T06:21:53.962Z,12.73
2022-08-26T06:24:41.711Z,13.05
2022-08-26T06:27:13.408Z,13.22
2022-08-26T06:29:40.220Z,13.25
2022-08-26T06:32:09.259Z,13.11
2022-08-26T06:34:38.422Z,13.18
2022-08-26T06:37:06.367Z,13.29
2022-08-26T06:39:33.419Z,13.26
2022-08-26T06:42:17.855Z,13.51
2022-08-26T06:44:47.191Z,13.48
2022-08-26T06:47:14.886Z,13.47
2022-08-26T06:49:41.775Z,13.35
2022-08-26T06:52:11.023Z,13.53
2022-08-26T06:54:41.695Z,13.56
2022-08-26T06:57:10.824Z,13.56
2022-08-26T06:59:38.003Z,13.92
2022-08-26T07:02:06.268Z,13.86
2022-08-26T07:04:35.956Z,13.69
2022-08-26T07:07:02.772Z,13.75
2022-08-26T07:09:48.462Z,13.80
2022-08-26T07:12:30.747Z,13.46
2022-08-26T07:14:59.803Z,13.48
2022-08-26T07:17:26.643Z,13.88
2022-08-26T07:19:54.190Z,13.92
2022-08-26T07:22:21.278Z,14.05
2022-08-26T07:24:50.904Z,13.79
2022-08-26T07:27:17.761Z,13.81
2022-08-26T07:29:45.245Z,13.99
2022-08-26T07:32:17.039Z,14.01
2022-08-26T07:34:45.715Z,14.19
2022-08-26T07:37:12.619Z,14.28
2022-08-26T07:39:41.761Z,14.48
2022-08-26T07:42:13.365Z,14.43
2022-08-26T07:44:41.879Z,14.39
2022-08-26T07:47:25.115Z,14.66
2022-08-26T07:49:55.011Z,14.57
2022-08-26T07:52:26.347Z,14.74
2022-08-26T07:54:57.916Z,14.87
2022-08-26T07:57:25.284Z,14.91
2022-08-26T07:59:55.057Z,14.98
2022-08-26T08:02:23.733Z,15.24
2022-08-26T08:04:52.083Z,15.45
2022-08-26T08:07:18.799Z,15.39
2022-08-26T08:09:45.456Z,15.53
2022-08-26T08:12:21.160Z,15.47
2022-08-26T08:14:52.597Z,15.62
2022-08-26T08:17:19.676Z,15.66
2022-08-26T08:19:48.017Z,15.86
2022-08-26T08:22:19.798Z,16.12
2022-08-26T08:24:49.951Z,16.15
2022-08-26T08:27:23.666Z,15.86
2022-08-26T08:29:54.284Z,16.14
2022-08-26T08:32:23.016Z,16.53
2022-08-26T08:34:49.719Z,16.59
2022-08-26T08:37:16.601Z,16.88
2022-08-26T08:39:43.319Z,17.03
2022-08-26T08:42:37.148Z,17.31
2022-08-26T08:45:10.433Z,17.41
2022-08-26T08:47:47.486Z,17.59
2022-08-26T08:50:33.957Z,17.82
2022-08-26T08:53:12.902Z,18.08
2022-08-26T08:55:53.023Z,18.30
2022-08-26T08:58:23.501Z,18.52
2022-08-26T09:00:57.374Z,18.73
2022-08-26T09:03:42.785Z,18.65
2022-08-26T09:06:17.422Z,19.09
2022-08-26T09:08:47.098Z,19.31
2022-08-26T09:11:19.142Z,19.55
2022-08-26T09:13:52.773Z,19.53
2022-08-26T09:16:41.852Z,19.92
2022-08-26T09:19:32.577Z,20.23
2022-08-26T09:22:02.247Z,20.45
2022-08-26T09:24:41.617Z,20.39
2022-08-26T09:27:08.887Z,20.69
2022-08-26T09:29:43.951Z,20.93
2022-08-26T09:32:16.328Z,21.17
2022-08-26T09:34:58.714Z,21.19
2022-08-26T09:40:27.511Z,21.70
2022-08-26T09:43:04.130Z,21.83
2022-08-26T09:45:30.883Z,21.85
2022-08-26T09:48:01.283Z,22.07
2022-08-26T09:50:38.314Z,22.42
2022-08-26T09:53:21.099Z,22.60
2022-08-26T09:56:12.219Z,22.69
2022-08-26T09:58:42.587Z,22.97
2022-08-26T10:01:36.527Z,22.99
2022-08-26T10:04:19.897Z,23.41
2022-08-26T10:06:59.180Z,23.46
2022-08-26T10:09:26.569Z,23.69
2022-08-26T10:12:02.292Z,23.94
2022-08-26T10:14:39.984Z,24.07
2022-08-26T10:17:50.242Z,24.27
2022-08-26T10:20:34.756Z,24.46
2022-08-26T10:23:15.032Z,24.69
2022-08-26T10:26:00.330Z,24.78
2022-08-26T10:28:49.028Z,25.15
2022-08-26T10:31:40.282Z,25.37
2022-08-26T10:34:12.469Z,25.50
2022-08-26T10:37:10.507Z,25.44
2022-08-26T10:39:43.866Z,25.90
2022-08-26T10:42:48.325Z,25.96
2022-08-26T10:45:25.189Z,26.07
2022-08-26T10:47:54.688Z,26.47
2022-08-26T10:50:26.175Z,26.61
2022-08-26T10:53:02.005Z,26.69
2022-08-26T10:55:34.981Z,26.80
2022-08-26T10:58:11.632Z,26.86
2022-08-26T11:01:10.203Z,26.94
2022-08-26T11:04:06.031Z,27.34
2022-08-26T11:06:32.902Z,27.35
2022-08-26T11:09:06.275Z,27.58
2022-08-26T11:11:42.446Z,27.65
2022-08-26T11:14:10.047Z,27.71
2022-08-26T11:16:52.663Z,27.81
2022-08-26T11:19:59.732Z,27.92
2022-08-26T11:22:32.027Z,28.00
2022-08-26T11:24:58.863Z,28.13
2022-08-26T11:27:26.215Z,28.18
2022-08-26T11:30:01.242Z,28.23
2022-08-26T11:32:33.719Z,28.33
2022-08-26T11:35:34.957Z,28.42
2022-08-26T11:38:20.260Z,28.46
2022-08-26T11:40:58.150Z,28.24
2022-08-26T11:43:29.890Z,28.28
2022-08-26T11:46:10.651Z,28.32
2022-08-26T11:48:43.050Z,28.27
2022-08-26T11:51:21.994Z,28.37
2022-08-26T11:53:49.196Z,28.40
2022-08-26T11:56:33.273Z,28.53
2022-08-26T11:59:03.595Z,28.67
2022-08-26T12:01:35.595Z,28.60
2022-08-26T12:04:13.789Z,28.63
2022-08-26T12:06:51.009Z,28.76
2022-08-26T12:09:30.327Z,28.76
2022-08-26T12:12:15.496Z,28.57
2022-08-26T12:14:43.092Z,28.19
2022-08-26T12:17:18.690Z,28.10
2022-08-26T12:19:45.971Z,28.04
2022-08-26T12:22:22.542Z,28.11
2022-08-26T12:24:54.260Z,28.18
2022-08-26T12:27:20.933Z,28.12
2022-08-26T12:30:24.391Z,28.29
2022-08-26T12:33:12.492Z,28.02
2022-08-26T12:35:54.203Z,28.13
2022-08-26T12:38:24.417Z,27.84
2022-08-26T12:40:51.044Z,27.55
2022-08-26T12:43:56.709Z,27.13
2022-08-26T12:46:28.610Z,27.06
2022-08-26T12:49:01.062Z,26.91
2022-08-26T12:51:30.722Z,27.07
2022-08-26T12:53:58.267Z,27.07
2022-08-26T12:56:40.643Z,27.16
2022-08-26T12:59:18.352Z,26.64
2022-08-26T13:01:46.742Z,26.49
2022-08-26T13:04:40.737Z,26.28
2022-08-26T13:07:27.185Z,26.01
2022-08-26T13:09:58.026Z,26.12
2022-08-26T13:12:33.559Z,26.26
2022-08-26T13:15:01.650Z,26.43
2022-08-26T13:17:30.258Z,26.68
2022-08-26T13:20:03.304Z,26.87
2022-08-26T13:22:30.305Z,26.95
2022-08-26T13:24:57.416Z,26.97
2022-08-26T13:27:26.441Z,26.96
2022-08-26T13:29:54.336Z,27.15
2022-08-26T13:32:22.554Z,27.19
2022-08-26T13:34:55.142Z,27.34
2022-08-26T13:37:22.389Z,27.14
2022-08-26T13:40:04.982Z,27.15
2022-08-26T13:42:31.645Z,27.49
2022-08-26T13:44:58.906Z,27.40
2022-08-26T13:47:26.151Z,27.63
2022-08-26T13:49:54.831Z,27.63
2022-08-26T13:52:30.584Z,27.73
2022-08-26T13:55:00.451Z,27.82
2022-08-26T13:57:29.858Z,27.80
2022-08-26T14:00:01.892Z,27.99
2022-08-26T14:02:28.554Z,28.15
2022-08-26T14:04:55.988Z,28.23
2022-08-26T14:07:23.130Z,28.28
2022-08-26T14:09:49.710Z,28.15
2022-08-26T14:12:16.806Z,28.13
2022-08-26T14:14:43.562Z,28.14
2022-08-26T14:17:10.129Z,28.36
2022-08-26T14:19:36.943Z,28.33
2022-08-26T14:22:04.044Z,27.63
2022-08-26T14:24:30.731Z,27.16
2022-08-26T14:26:57.479Z,26.75
2022-08-26T14:29:24.140Z,26.32
2022-08-26T14:31:50.800Z,26.25
2022-08-26T14:34:17.696Z,25.91
2022-08-26T14:36:44.385Z,26.12
2022-08-26T14:39:13.538Z,26.51
2022-08-26T14:41:45.610Z,26.79
2022-08-26T14:44:22.249Z,27.11
2022-08-26T14:46:51.111Z,27.64
2022-08-26T14:49:19.461Z,28.02
2022-08-26T14:51:46.625Z,28.40
2022-08-26T14:54:17.603Z,28.57
2022-08-26T14:57:05.975Z,28.58
2022-08-26T14:59:36.191Z,28.76
2022-08-26T15:02:04.649Z,28.81
2022-08-26T15:04:31.565Z,28.88
2022-08-26T15:07:00.498Z,28.79
2022-08-26T15:09:28.964Z,28.57
2022-08-26T15:11:58.072Z,28.31
2022-08-26T15:14:27.590Z,28.16
2022-08-26T15:16:57.107Z,28.42
2022-08-26T15:19:25.688Z,28.52
2022-08-26T15:21:52.962Z,28.28
2022-08-26T15:24:22.475Z,27.98
2022-08-26T15:26:49.585Z,27.73
2022-08-26T15:29:16.847Z,27.41
2022-08-26T15:31:43.664Z,27.14
2022-08-26T15:34:16.326Z,27.03
2022-08-26T15:36:45.912Z,26.56
2022-08-26T15:39:12.988Z,26.59
2022-08-26T15:41:39.531Z,26.42
2022-08-26T15:44:07.616Z,26.43
2022-08-26T15:46:34.939Z,26.08
2022-08-26T15:49:03.222Z,26.13
2022-08-26T15:51:35.420Z,25.89
2022-08-26T15:54:13.802Z,25.70
2022-08-26T15:56:40.409Z,25.70
2022-08-26T15:59:07.989Z,25.55
2022-08-26T16:01:35.107Z,25.44
2022-08-26T16:04:02.116Z,25.40
2022-08-26T16:06:31.706Z,25.31
2022-08-26T16:08:59.148Z,25.37
2022-08-26T16:11:26.429Z,25.28
2022-08-26T16:13:53.467Z,25.22
2022-08-26T16:16:21.504Z,25.03
2022-08-26T16:18:48.582Z,25.06
2022-08-26T16:21:20.537Z,25.06
2022-08-26T16:23:47.301Z,24.85
2022-08-26T16:26:23.114Z,24.95
2022-08-26T16:28:56.774Z,24.65
2022-08-26T16:31:29.892Z,24.55
2022-08-26T16:33:56.797Z,24.76
2022-08-26T16:36:24.135Z,24.40
2022-08-26T16:39:16.149Z,24.26
2022-08-26T16:41:44.148Z,24.30
2022-08-26T16:44:12.027Z,24.48
2022-08-26T16:46:39.655Z,24.34
2022-08-26T16:49:06.822Z,24.18
2022-08-26T16:51:41.147Z,23.99
2022-08-26T16:54:09.036Z,23.68
2022-08-26T16:56:37.419Z,23.81
2022-08-26T16:59:14.086Z,23.67
2022-08-26T17:01:47.791Z,23.75
2022-08-26T17:04:14.725Z,23.65
2022-08-26T17:06:41.747Z,23.65
2022-08-26T17:09:23.444Z,23.66
2022-08-26T17:11:53.076Z,23.30
2022-08-26T17:14:20.027Z,23.50
2022-08-26T17:16:49.952Z,23.44
2022-08-26T17:19:34.543Z,23.34
2022-08-26T17:22:09.014Z,23.07
2022-08-26T17:24:35.845Z,23.38
2022-08-26T17:27:02.560Z,23.37
2022-08-26T17:29:31.184Z,23.28
2022-08-26T17:31:59.625Z,23.11
2022-08-26T17:34:26.633Z,23.32
2022-08-26T17:36:56.073Z,22.85
2022-08-26T17:39:25.251Z,23.34
2022-08-26T17:41:52.141Z,23.06
2022-08-26T17:44:19.033Z,23.19
2022-08-26T17:46:58.785Z,23.14
2022-08-26T17:49:35.473Z,22.69
2022-08-26T17:52:02.753Z,23.00
2022-08-26T17:54:30.148Z,22.61
2022-08-26T17:57:00.836Z,22.90
2022-08-26T17:59:41.002Z,22.82
2022-08-26T18:02:12.813Z,22.60
2022-08-26T18:04:39.932Z,22.90
2022-08-26T18:07:19.638Z,22.85
2022-08-26T18:09:46.460Z,23.00
2022-08-26T18:12:15.782Z,22.81
2022-08-26T18:14:49.716Z,22.51
2022-08-26T18:17:19.511Z,22.55
2022-08-26T18:19:50.571Z,22.57
2022-08-26T18:22:23.254Z,22.31
2022-08-26T18:24:52.771Z,22.51
2022-08-26T18:27:36.544Z,22.44
2022-08-26T18:30:35.444Z,22.59
2022-08-26T18:33:15.105Z,22.18
2022-08-26T18:35:45.335Z,22.63
2022-08-26T18:38:14.261Z,22.46
2022-08-26T18:40:44.060Z,22.45
2022-08-26T18:44:00.038Z,22.20
2022-08-26T18:46:29.883Z,22.05
2022-08-26T18:48:57.826Z,22.19
2022-08-26T18:51:29.907Z,21.99
2022-08-26T18:53:57.277Z,22.36
2022-08-26T18:56:34.757Z,21.84
2022-08-26T18:59:33.506Z,22.28
2022-08-26T19:02:10.262Z,22.25
2022-08-26T19:04:48.507Z,22.02
2022-08-26T19:07:15.174Z,21.84
2022-08-26T19:09:41.886Z,21.77
2022-08-26T19:12:08.931Z,21.76
2022-08-26T19:14:40.841Z,22.05
2022-08-26T19:17:15.020Z,21.76
2022-08-26T19:20:17.912Z,21.55
2022-08-26T19:22:59.640Z,21.50
2022-08-26T19:28:19.755Z,21.30
2022-08-26T19:30:53.654Z,21.63
2022-08-26T19:33:30.007Z,21.33
2022-08-26T19:36:32.912Z,21.12
2022-08-26T19:39:00.462Z,21.11
2022-08-26T19:41:44.084Z,21.30
2022-08-26T19:44:49.300Z,21.28
2022-08-26T19:47:18.031Z,20.94
2022-08-26T19:50:02.913Z,20.96
2022-08-26T19:52:33.389Z,20.81
2022-08-26T19:55:03.880Z,21.11
2022-08-26T19:57:33.906Z,20.98
2022-08-26T20:00:01.112Z,20.92
2022-08-26T20:02:28.876Z,20.59
2022-08-26T20:05:08.171Z,20.49
2022-08-26T20:07:35.706Z,20.05
2022-08-26T20:10:13.180Z,20.12
2022-08-26T20:12:42.958Z,20.06
2022-08-26T20:15:14.528Z,20.30
2022-08-26T20:17:49.957Z,19.66
2022-08-26T20:20:39.008Z,19.93
2022-08-26T20:23:07.996Z,19.67
2022-08-26T20:25:43.618Z,19.35
2022-08-26T20:28:10.453Z,19.62
2022-08-26T20:30:38.905Z,19.60
2022-08-26T20:33:44.379Z,19.45
2022-08-26T20:36:35.198Z,19.11
2022-08-26T20:39:11.030Z,19.21
2022-08-26T20:41:38.923Z,19.36
2022-08-26T20:44:11.317Z,19.21
2022-08-26T20:46:38.968Z,19.11
2022-08-26T20:49:12.719Z,19.28
2022-08-26T20:51:42.968Z,18.95
2022-08-26T20:54:15.405Z,19.04
2022-08-26T20:56:42.278Z,19.00
2022-08-26T20:59:12.301Z,18.93
2022-08-26T21:01:46.778Z,18.99
2022-08-26T21:04:23.241Z,18.72
2022-08-26T21:06:54.607Z,18.55
2022-08-26T21:09:28.956Z,18.47
2022-08-26T21:12:09.247Z,18.66
2022-08-26T21:14:36.016Z,18.64
2022-08-26T21:17:15.557Z,18.35
2022-08-26T21:22:50.346Z,18.87
2022-08-26T21:26:13.385Z,18.30
2022-08-26T21:28:42.616Z,18.65
2022-08-26T21:31:12.864Z,18.62
2022-08-26T21:33:39.560Z,18.62
2022-08-26T21:36:09.299Z,18.49
2022-08-26T21:38:40.169Z,18.54
2022-08-26T21:41:14.020Z,18.35
2022-08-26T21:43:41.977Z,18.16
2022-08-26T21:46:14.783Z,18.36
2022-08-26T21:48:54.690Z,18.22
2022-08-26T21:51:24.201Z,18.30
2022-08-26T21:53:53.006Z,18.06
2022-08-26T21:56:21.169Z,18.14
2022-08-26T21:58:47.865Z,18.02
2022-08-26T22:01:17.700Z,17.82
2022-08-26T22:03:47.542Z,17.84
2022-08-26T22:06:16.521Z,17.94
2022-08-26T22:08:43.285Z,17.87
2022-08-26T22:11:10.477Z,17.97
2022-08-26T22:13:39.152Z,17.94
2022-08-26T22:16:06.797Z,17.79
2022-08-26T22:18:34.110Z,17.88
2022-08-26T22:21:05.242Z,17.87
2022-08-26T22:23:31.944Z,17.64
2022-08-26T22:25:59.392Z,17.85
2022-08-26T22:28:26.550Z,17.84
2022-08-26T22:30:53.105Z,17.70
2022-08-26T22:33:19.923Z,17.68
2022-08-26T22:35:48.656Z,17.77
2022-08-26T22:38:15.322Z,17.76
2022-08-26T22:40:50.445Z,17.67
2022-08-26T22:43:18.851Z,17.60
2022-08-26T22:45:48.195Z,17.66
2022-08-26T22:48:17.573Z,17.66
2022-08-26T22:50:46.180Z,17.66
2022-08-26T22:53:13.515Z,17.42
2022-08-26T22:55:40.162Z,17.60
2022-08-26T22:58:07.064Z,17.59
2022-08-26T23:00:34.259Z,17.47
2022-08-26T23:03:01.801Z,17.57
2022-08-26T23:05:28.678Z,17.52
2022-08-26T23:07:56.649Z,17.48
2022-08-26T23:10:24.397Z,17.46
2022-08-26T23:12:52.517Z,17.41
2022-08-26T23:15:20.115Z,17.38
2022-08-26T23:17:47.081Z,17.32
2022-08-26T23:20:20.240Z,17.17
2022-08-26T23:22:46.773Z,17.14
2022-08-26T23:25:14.858Z,17.25
2022-08-26T23:27:43.294Z,17.19
2022-08-26T23:30:14.518Z,17.04
2022-08-26T23:32:41.292Z,17.03
2022-08-26T23:35:09.800Z,17.02
2022-08-26T23:37:43.676Z,16.93
2022-08-26T23:40:18.657Z,16.97
2022-08-26T23:42:45.357Z,16.76
2022-08-26T23:45:13.645Z,16.78
2022-08-26T23:47:41.254Z,16.89
2022-08-26T23:50:08.855Z,16.87
2022-08-26T23:52:53.927Z,16.78
2022-08-26T23:55:20.577Z,16.75
2022-08-26T23:57:47.326Z,16.80
